createdAt,value
2023-05-11T00:03:20.665Z,0.20
2023-05-11T00:08:24.220Z,0.53
2023-05-11T00:13:29.270Z,0.30
2023-05-11T00:18:32.846Z,0.30
2023-05-11T00:23:36.561Z,0.23
2023-05-11T00:28:41.426Z,0.40
2023-05-11T00:33:44.993Z,0.27
2023-05-11T00:38:49.988Z,0.23
2023-05-11T00:43:54.883Z,0.20
2023-05-11T00:48:58.861Z,0.30
2023-05-11T00:54:02.710Z,0.50
2023-05-11T00:59:07.622Z,0.33
2023-05-11T01:04:11.619Z,0.23
2023-05-11T01:09:23.964Z,0.30
2023-05-11T01:14:35.625Z,0.23
2023-05-11T01:19:44.401Z,0.33
2023-05-11T01:25:04.625Z,0.30
2023-05-11T01:30:31.708Z,0.30
2023-05-11T01:35:38.698Z,0.40
2023-05-11T01:40:45.370Z,0.30
2023-05-11T01:45:51.576Z,0.40
2023-05-11T01:50:57.403Z,0.20
2023-05-11T01:56:03.345Z,0.40
2023-05-11T02:01:09.709Z,0.50
2023-05-11T02:06:16.320Z,0.40
2023-05-11T02:11:23.629Z,0.30
2023-05-11T02:16:30.262Z,0.60
2023-05-11T02:21:35.739Z,0.30
2023-05-11T02:26:39.390Z,0.40
2023-05-11T02:31:47.255Z,0.50
2023-05-11T02:36:59.841Z,0.37
2023-05-11T02:42:19.036Z,0.33
2023-05-11T02:47:28.252Z,0.53
2023-05-11T02:52:34.186Z,0.57
2023-05-11T02:57:39.375Z,0.33
2023-05-11T03:02:46.270Z,0.50
2023-05-11T03:07:51.130Z,0.50
2023-05-11T03:12:55.327Z,0.50
2023-05-11T03:18:02.877Z,0.50
2023-05-11T03:23:07.644Z,0.40
2023-05-11T03:28:12.636Z,0.87
2023-05-11T03:33:20.766Z,0.50
2023-05-11T03:38:25.956Z,0.70
2023-05-11T03:43:32.862Z,0.70
2023-05-11T03:48:38.192Z,0.90
2023-05-11T03:53:42.188Z,0.60
2023-05-11T03:58:46.026Z,0.63
2023-05-11T04:03:51.824Z,0.57
2023-05-11T04:08:55.734Z,0.60
2023-05-11T04:13:59.336Z,0.77
2023-05-11T04:19:06.840Z,0.83
2023-05-11T04:24:11.777Z,0.93
2023-05-11T04:29:16.513Z,0.90
2023-05-11T04:34:21.636Z,1.20
2023-05-11T04:39:26.223Z,1.30
2023-05-11T04:44:30.353Z,0.90
2023-05-11T04:49:35.805Z,1.20
2023-05-11T04:54:40.641Z,1.10
2023-05-11T04:59:44.314Z,1.70
2023-05-11T05:04:49.514Z,1.50
2023-05-11T05:09:53.042Z,1.87
2023-05-11T05:14:56.594Z,1.63
2023-05-11T05:20:01.433Z,1.90
2023-05-11T05:25:05.444Z,1.80
2023-05-11T05:30:09.924Z,1.73
2023-05-11T05:35:14.865Z,1.47
2023-05-11T05:40:20.176Z,1.47
2023-05-11T05:45:27.881Z,1.50
2023-05-11T05:50:33.977Z,1.60
2023-05-11T05:55:38.440Z,1.53
2023-05-11T06:00:42.699Z,1.70
2023-05-11T06:05:49.518Z,1.50
2023-05-11T06:10:53.962Z,1.67
2023-05-11T06:15:57.705Z,1.50
2023-05-11T06:21:07.515Z,1.67
2023-05-11T06:26:11.799Z,2.00
2023-05-11T06:31:16.281Z,2.27
2023-05-11T06:36:22.268Z,2.30
2023-05-11T06:41:25.998Z,2.83
2023-05-11T06:46:29.786Z,1.97
2023-05-11T06:51:34.735Z,2.27
2023-05-11T06:56:38.253Z,2.27
2023-05-11T07:01:41.801Z,2.47
2023-05-11T07:06:46.711Z,2.07
2023-05-11T07:11:51.149Z,2.23
2023-05-11T07:16:54.977Z,2.07
2023-05-11T07:22:00.966Z,2.20
2023-05-11T07:27:04.535Z,2.27
2023-05-11T07:32:08.126Z,2.47
2023-05-11T07:37:13.150Z,2.43
2023-05-11T07:42:16.722Z,2.47
2023-05-11T07:47:20.949Z,2.60
2023-05-11T07:52:26.630Z,2.40
2023-05-11T07:57:30.186Z,2.27
2023-05-11T08:02:33.736Z,2.40
2023-05-11T08:07:41.190Z,2.57
2023-05-11T08:12:45.316Z,1.80
2023-05-11T08:17:48.869Z,2.60
2023-05-11T08:22:53.881Z,2.43
2023-05-11T08:27:57.529Z,2.67
2023-05-11T08:33:01.268Z,2.10
2023-05-11T08:38:06.247Z,2.00
2023-05-11T08:43:10.608Z,1.50
2023-05-11T08:48:15.386Z,2.00
2023-05-11T08:53:20.310Z,2.83
2023-05-11T08:58:24.483Z,2.20
2023-05-11T09:03:31.108Z,2.60
2023-05-11T09:08:37.855Z,2.27
2023-05-11T09:13:41.409Z,2.60
2023-05-11T09:18:48.641Z,3.40
2023-05-11T09:23:56.310Z,2.70
2023-05-11T09:29:03.238Z,2.60
2023-05-11T09:34:14.865Z,3.00
2023-05-11T09:39:34.990Z,3.30
2023-05-11T09:44:41.696Z,3.83
2023-05-11T09:49:46.725Z,4.40
2023-05-11T09:54:52.642Z,2.80
2023-05-11T09:59:57.630Z,3.10
2023-05-11T10:05:02.480Z,2.60
2023-05-11T10:10:09.209Z,2.07
2023-05-11T10:15:14.235Z,2.47
2023-05-11T10:20:18.294Z,2.30
2023-05-11T10:25:26.422Z,3.37
2023-05-11T10:30:30.736Z,2.10
2023-05-11T10:35:34.350Z,2.33
2023-05-11T10:40:41.293Z,1.87
2023-05-11T10:45:52.999Z,2.10
2023-05-11T10:51:14.870Z,1.77
2023-05-11T10:56:51.101Z,1.80
2023-05-11T11:01:58.937Z,2.47
2023-05-11T11:07:07.415Z,2.40
2023-05-11T11:12:13.356Z,2.00
2023-05-11T11:17:24.293Z,2.40
2023-05-11T11:22:51.819Z,2.93
2023-05-11T11:28:00.043Z,1.70
2023-05-11T11:33:32.798Z,1.73
2023-05-11T11:39:00.396Z,1.70
2023-05-11T11:44:05.710Z,2.40
2023-05-11T11:49:10.051Z,1.67
2023-05-11T11:54:13.601Z,1.80
2023-05-11T11:59:18.943Z,3.03
2023-05-11T12:04:52.694Z,2.03
2023-05-11T12:09:57.250Z,3.33
2023-05-11T12:15:03.570Z,2.67
2023-05-11T12:20:14.879Z,1.77
2023-05-11T12:25:19.257Z,3.03
2023-05-11T12:30:26.015Z,2.03
2023-05-11T12:35:33.536Z,2.23
2023-05-11T12:40:38.789Z,1.63
2023-05-11T12:45:43.800Z,2.10
2023-05-11T12:50:47.974Z,1.90
2023-05-11T12:55:59.306Z,2.17
2023-05-11T13:01:04.493Z,1.60
2023-05-11T13:06:09.179Z,2.33
2023-05-11T13:11:20.370Z,1.87
2023-05-11T13:16:29.652Z,1.97
2023-05-11T13:21:34.149Z,1.87
2023-05-11T13:26:37.666Z,2.50
2023-05-11T13:31:46.455Z,2.83
2023-05-11T13:36:50.710Z,1.93
2023-05-11T13:41:55.940Z,2.40
2023-05-11T13:47:01.186Z,1.90
2023-05-11T13:52:05.286Z,2.20
2023-05-11T13:57:08.977Z,2.20
2023-05-11T14:02:15.295Z,2.60
2023-05-11T14:07:18.832Z,3.00
2023-05-11T14:12:22.354Z,2.20
2023-05-11T14:17:27.333Z,2.20
2023-05-11T14:22:31.021Z,3.60
2023-05-11T14:27:34.562Z,3.13
2023-05-11T14:32:39.449Z,2.40
2023-05-11T14:37:43.151Z,1.80
2023-05-11T14:42:46.673Z,1.87
2023-05-11T14:47:51.924Z,2.57
2023-05-11T14:52:55.724Z,2.20
2023-05-11T14:57:59.285Z,2.77
2023-05-11T15:03:04.758Z,1.60
2023-05-11T15:08:18.340Z,2.70
2023-05-11T15:13:29.531Z,1.67
2023-05-11T15:18:34.439Z,1.90
2023-05-11T15:23:37.958Z,2.70
2023-05-11T15:28:41.472Z,2.20
2023-05-11T15:33:46.397Z,2.70
2023-05-11T15:38:49.893Z,1.87
2023-05-11T15:43:53.736Z,1.87
2023-05-11T15:49:00.061Z,1.80
2023-05-11T15:54:03.905Z,1.80
2023-05-11T15:59:07.629Z,1.57
2023-05-11T16:04:12.756Z,2.23
2023-05-11T16:09:16.682Z,1.90
2023-05-11T16:14:20.166Z,1.80
2023-05-11T16:19:26.543Z,2.23
2023-05-11T16:24:32.155Z,4.20
2023-05-11T16:29:37.480Z,3.37
2023-05-11T16:34:43.047Z,3.00
2023-05-11T16:39:46.638Z,2.50
2023-05-11T16:44:50.205Z,2.00
2023-05-11T16:49:55.117Z,2.13
2023-05-11T16:54:59.233Z,1.90
2023-05-11T17:00:03.020Z,2.60
2023-05-11T17:05:08.857Z,2.10
2023-05-11T17:10:12.496Z,4.37
2023-05-11T17:15:16.035Z,4.93
2023-05-11T17:20:21.830Z,2.70
2023-05-11T17:25:25.507Z,2.17
2023-05-11T17:30:40.014Z,1.83
2023-05-11T17:35:52.750Z,1.33
2023-05-11T17:40:56.522Z,2.53
2023-05-11T17:46:00.351Z,1.63
2023-05-11T17:51:05.358Z,1.53
2023-05-11T17:56:11.579Z,1.80
2023-05-11T18:01:15.177Z,2.30
2023-05-11T18:06:20.146Z,2.07
2023-05-11T18:11:23.672Z,2.00
2023-05-11T18:16:27.294Z,1.63
2023-05-11T18:21:33.208Z,1.73
2023-05-11T18:26:36.733Z,1.53
2023-05-11T18:31:40.360Z,1.90
2023-05-11T18:36:45.243Z,2.07
2023-05-11T18:41:48.729Z,1.50
2023-05-11T18:46:52.255Z,1.80
2023-05-11T18:51:58.111Z,1.87
2023-05-11T18:57:02.397Z,1.93
2023-05-11T19:02:06.390Z,1.93
2023-05-11T19:07:11.395Z,1.43
2023-05-11T19:12:17.386Z,1.50
2023-05-11T19:17:20.909Z,1.67
2023-05-11T19:22:26.270Z,1.70
2023-05-11T19:27:29.960Z,2.17
2023-05-11T19:32:33.587Z,2.67
2023-05-11T19:37:38.528Z,1.93
2023-05-11T19:42:42.134Z,1.83
2023-05-11T19:47:45.760Z,1.73
2023-05-11T19:52:50.716Z,1.80
2023-05-11T19:57:54.500Z,1.67
2023-05-11T20:02:58.776Z,1.63
2023-05-11T20:08:05.770Z,1.40
2023-05-11T20:13:09.309Z,1.50
2023-05-11T20:18:12.792Z,1.73
2023-05-11T20:23:18.036Z,1.60
2023-05-11T20:28:22.125Z,1.53
2023-05-11T20:38:34.025Z,1.63
2023-05-11T20:43:37.532Z,1.50
2023-05-11T20:48:42.837Z,2.07
2023-05-11T20:53:53.565Z,1.80
2023-05-11T20:58:57.292Z,1.90
2023-05-11T21:04:00.982Z,1.90
2023-05-11T21:09:06.517Z,2.00
2023-05-11T21:14:10.054Z,2.37
2023-05-11T21:19:15.817Z,2.30
2023-05-11T21:24:21.191Z,2.17
2023-05-11T21:29:24.751Z,2.43
2023-05-11T21:34:28.295Z,2.47
2023-05-11T21:39:33.133Z,2.60
2023-05-11T21:44:36.793Z,2.00
2023-05-11T21:49:40.639Z,2.23
2023-05-11T21:54:45.609Z,2.23
2023-05-11T21:59:51.130Z,2.30
2023-05-11T22:04:54.907Z,2.10
2023-05-11T22:09:59.816Z,2.50
2023-05-11T22:15:03.687Z,2.23
2023-05-11T22:20:09.848Z,2.00
2023-05-11T22:25:15.017Z,2.20
2023-05-11T22:30:20.218Z,2.20
2023-05-11T22:35:24.115Z,2.30
2023-05-11T22:40:29.163Z,2.47
2023-05-11T22:45:32.882Z,2.83
2023-05-11T22:50:36.464Z,2.23
2023-05-11T22:55:41.718Z,2.20
2023-05-11T23:00:46.275Z,2.63
2023-05-11T23:05:49.802Z,2.47
2023-05-11T23:10:54.745Z,2.47
2023-05-11T23:15:58.268Z,2.07
2023-05-11T23:21:02.163Z,2.10
2023-05-11T23:26:07.097Z,2.33
2023-05-11T23:31:11.147Z,2.33
2023-05-11T23:36:14.737Z,2.00
2023-05-11T23:41:19.637Z,2.07
2023-05-11T23:46:23.111Z,1.70
2023-05-11T23:51:27.178Z,1.80
2023-05-11T23:56:32.045Z,1.83
